KOXB

Ocean City Municipal Airport

Ocean City, Maryland, USA
METAR KOXB 181431Z AUTO 28010KT 10SM SCT021 28/24 A2991 RMK AO2 T02830239
Observed Flight Rules
Aug-18 @ 14:31 UTC (20 minutes ago) Visual Flight Rules
Wind Visibility Clouds
280° at 10 knots 10 miles
  • Scattered at 2,100' AGL
Temperatures Readings
Current 28°C / 82°F
Dewpoint 24°C / 75°F
Humidity 79%
Altimeter 29.91" Hg
Pressure 1013 hPa
Elevation 3
METAR KOXB 181431Z AUTO 28010KT 10SM SCT021 28/24 A2991 RMK AO2 T02830239
Observed Flight Rules
Aug-18 @ 14:31 UTC
(20 minutes ago)
VFR
Wind Visibility
280° at 10 knots 10 miles
Clouds
  • Scattered at 2,100' AGL
Temperature Dewpoint
28°C / 82°F 24°C / 75°F
Humidity Altimeter Pressure
79% 29.91" Hg 1013 hPa